sensor_id;sensor_type;location;lat;lon;timestamp;temperature;humidity
12504;DHT22;6316;48.118;-1.690;2023-04-01T00:02:18;11.90;99.90
12504;DHT22;6316;48.118;-1.690;2023-04-01T00:04:43;11.80;99.90
12504;DHT22;6316;48.118;-1.690;2023-04-01T00:07:10;11.80;99.90
12504;DHT22;6316;48.118;-1.690;2023-04-01T00:09:36;11.80;99.90
12504;DHT22;6316;48.118;-1.690;2023-04-01T00:12:03;11.70;99.90
12504;DHT22;6316;48.118;-1.690;2023-04-01T00:14:29;11.70;99.90
12504;DHT22;6316;48.118;-1.690;2023-04-01T00:16:55;11.60;99.90
12504;DHT22;6316;48.118;-1.690;2023-04-01T00:19:21;11.60;99.90
12504;DHT22;6316;48.118;-1.690;2023-04-01T00:21:46;11.60;99.90
12504;DHT22;6316;48.118;-1.690;2023-04-01T00:24:13;11.60;99.90
12504;DHT22;6316;48.118;-1.690;2023-04-01T00:26:38;11.50;99.90
12504;DHT22;6316;48.118;-1.690;2023-04-01T00:29:04;11.50;99.90
12504;DHT22;6316;48.118;-1.690;2023-04-01T00:31:31;11.50;99.90
12504;DHT22;6316;48.118;-1.690;2023-04-01T00:33:56;11.40;99.90
12504;DHT22;6316;48.118;-1.690;2023-04-01T00:36:22;11.40;99.90
12504;DHT22;6316;48.118;-1.690;2023-04-01T00:38:49;11.40;99.90
12504;DHT22;6316;48.118;-1.690;2023-04-01T00:41:16;11.40;99.90
12504;DHT22;6316;48.118;-1.690;2023-04-01T00:43:52;11.40;99.90
12504;DHT22;6316;48.118;-1.690;2023-04-01T00:46:18;11.30;99.90
12504;DHT22;6316;48.118;-1.690;2023-04-01T00:48:53;11.30;99.90
12504;DHT22;6316;48.118;-1.690;2023-04-01T00:51:25;11.30;99.90
12504;DHT22;6316;48.118;-1.690;2023-04-01T00:53:54;11.30;99.90
12504;DHT22;6316;48.118;-1.690;2023-04-01T00:56:39;11.30;99.90
12504;DHT22;6316;48.118;-1.690;2023-04-01T00:59:11;11.40;99.90
12504;DHT22;6316;48.118;-1.690;2023-04-01T01:01:38;11.30;99.90
12504;DHT22;6316;48.118;-1.690;2023-04-01T01:04:04;11.40;99.90
12504;DHT22;6316;48.118;-1.690;2023-04-01T01:06:54;11.40;99.90
12504;DHT22;6316;48.118;-1.690;2023-04-01T01:09:43;11.40;99.90
12504;DHT22;6316;48.118;-1.690;2023-04-01T01:12:25;11.40;99.90
12504;DHT22;6316;48.118;-1.690;2023-04-01T01:15:06;11.40;99.90
12504;DHT22;6316;48.118;-1.690;2023-04-01T01:17:43;11.30;99.90
12504;DHT22;6316;48.118;-1.690;2023-04-01T01:25:46;11.20;99.90
12504;DHT22;6316;48.118;-1.690;2023-04-01T01:33:42;11.30;99.90
12504;DHT22;6316;48.118;-1.690;2023-04-01T01:36:13;11.30;99.90
12504;DHT22;6316;48.118;-1.690;2023-04-01T01:38:40;11.30;99.90
12504;DHT22;6316;48.118;-1.690;2023-04-01T01:41:07;11.40;99.90
12504;DHT22;6316;48.118;-1.690;2023-04-01T01:43:39;11.40;99.90
12504;DHT22;6316;48.118;-1.690;2023-04-01T01:46:12;11.40;99.90
12504;DHT22;6316;48.118;-1.690;2023-04-01T01:48:41;11.40;99.90
12504;DHT22;6316;48.118;-1.690;2023-04-01T01:51:08;11.40;99.90
12504;DHT22;6316;48.118;-1.690;2023-04-01T01:53:34;11.30;99.90
12504;DHT22;6316;48.118;-1.690;2023-04-01T01:56:00;11.30;99.90
12504;DHT22;6316;48.118;-1.690;2023-04-01T01:58:32;11.30;99.90
12504;DHT22;6316;48.118;-1.690;2023-04-01T02:01:04;11.30;99.90
12504;DHT22;6316;48.118;-1.690;2023-04-01T02:03:34;11.30;99.90
12504;DHT22;6316;48.118;-1.690;2023-04-01T02:06:04;11.30;99.90
12504;DHT22;6316;48.118;-1.690;2023-04-01T02:08:35;11.30;99.90
12504;DHT22;6316;48.118;-1.690;2023-04-01T02:11:13;11.30;99.90
12504;DHT22;6316;48.118;-1.690;2023-04-01T02:13:52;11.30;99.90
12504;DHT22;6316;48.118;-1.690;2023-04-01T02:16:31;11.20;99.90
12504;DHT22;6316;48.118;-1.690;2023-04-01T02:19:01;11.20;99.90
12504;DHT22;6316;48.118;-1.690;2023-04-01T02:21:31;11.20;99.90
12504;DHT22;6316;48.118;-1.690;2023-04-01T02:23:59;11.20;99.90
12504;DHT22;6316;48.118;-1.690;2023-04-01T02:26:26;11.20;99.90
12504;DHT22;6316;48.118;-1.690;2023-04-01T02:28:54;11.10;99.90
12504;DHT22;6316;48.118;-1.690;2023-04-01T02:31:21;11.10;99.90
12504;DHT22;6316;48.118;-1.690;2023-04-01T02:33:47;11.00;99.90
12504;DHT22;6316;48.118;-1.690;2023-04-01T02:36:14;11.00;99.90
12504;DHT22;6316;48.118;-1.690;2023-04-01T02:38:42;11.00;99.90
12504;DHT22;6316;48.118;-1.690;2023-04-01T02:41:08;11.00;99.90
12504;DHT22;6316;48.118;-1.690;2023-04-01T02:43:33;11.00;99.90
12504;DHT22;6316;48.118;-1.690;2023-04-01T02:45:59;10.90;99.90
12504;DHT22;6316;48.118;-1.690;2023-04-01T02:48:25;11.00;99.90
12504;DHT22;6316;48.118;-1.690;2023-04-01T02:50:51;11.00;99.90
12504;DHT22;6316;48.118;-1.690;2023-04-01T02:53:16;11.00;99.90
12504;DHT22;6316;48.118;-1.690;2023-04-01T02:55:42;10.90;99.90
12504;DHT22;6316;48.118;-1.690;2023-04-01T02:58:08;10.90;99.90
12504;DHT22;6316;48.118;-1.690;2023-04-01T03:00:34;10.90;99.90
12504;DHT22;6316;48.118;-1.690;2023-04-01T03:02:59;10.80;99.90
12504;DHT22;6316;48.118;-1.690;2023-04-01T03:05:25;10.80;99.90
12504;DHT22;6316;48.118;-1.690;2023-04-01T03:07:51;10.70;99.90
12504;DHT22;6316;48.118;-1.690;2023-04-01T03:10:17;10.70;99.90
12504;DHT22;6316;48.118;-1.690;2023-04-01T03:12:43;10.70;99.90
12504;DHT22;6316;48.118;-1.690;2023-04-01T03:15:10;10.70;99.90
12504;DHT22;6316;48.118;-1.690;2023-04-01T03:17:38;10.70;99.90
12504;DHT22;6316;48.118;-1.690;2023-04-01T03:20:04;10.80;99.90
12504;DHT22;6316;48.118;-1.690;2023-04-01T03:22:30;10.80;99.90
12504;DHT22;6316;48.118;-1.690;2023-04-01T03:24:56;10.80;99.90
12504;DHT22;6316;48.118;-1.690;2023-04-01T03:27:22;10.80;99.90
12504;DHT22;6316;48.118;-1.690;2023-04-01T03:29:48;10.70;99.90
12504;DHT22;6316;48.118;-1.690;2023-04-01T03:32:14;10.70;99.90
12504;DHT22;6316;48.118;-1.690;2023-04-01T03:34:40;10.70;99.90
12504;DHT22;6316;48.118;-1.690;2023-04-01T03:37:06;10.60;99.90
12504;DHT22;6316;48.118;-1.690;2023-04-01T03:39:31;10.60;99.90
12504;DHT22;6316;48.118;-1.690;2023-04-01T03:41:57;10.60;99.90
12504;DHT22;6316;48.118;-1.690;2023-04-01T03:44:23;10.60;99.90
12504;DHT22;6316;48.118;-1.690;2023-04-01T03:46:48;10.60;99.90
12504;DHT22;6316;48.118;-1.690;2023-04-01T03:49:14;10.60;99.90
12504;DHT22;6316;48.118;-1.690;2023-04-01T03:51:42;10.60;99.90
12504;DHT22;6316;48.118;-1.690;2023-04-01T03:54:09;10.70;99.90
12504;DHT22;6316;48.118;-1.690;2023-04-01T03:56:35;10.70;99.90
12504;DHT22;6316;48.118;-1.690;2023-04-01T03:59:03;10.70;99.90
12504;DHT22;6316;48.118;-1.690;2023-04-01T04:01:29;10.70;99.90
12504;DHT22;6316;48.118;-1.690;2023-04-01T04:03:55;10.70;99.90
12504;DHT22;6316;48.118;-1.690;2023-04-01T04:06:22;10.80;99.90
12504;DHT22;6316;48.118;-1.690;2023-04-01T04:08:48;10.80;99.90
12504;DHT22;6316;48.118;-1.690;2023-04-01T04:11:14;10.90;99.90
12504;DHT22;6316;48.118;-1.690;2023-04-01T04:13:40;10.90;99.90
12504;DHT22;6316;48.118;-1.690;2023-04-01T04:16:06;11.00;99.90
12504;DHT22;6316;48.118;-1.690;2023-04-01T04:18:33;11.00;99.90
12504;DHT22;6316;48.118;-1.690;2023-04-01T04:20:58;11.00;99.90
12504;DHT22;6316;48.118;-1.690;2023-04-01T04:23:24;11.00;99.90
12504;DHT22;6316;48.118;-1.690;2023-04-01T04:26:10;11.00;99.90
12504;DHT22;6316;48.118;-1.690;2023-04-01T04:28:36;11.00;99.90
12504;DHT22;6316;48.118;-1.690;2023-04-01T04:31:03;11.10;99.90
12504;DHT22;6316;48.118;-1.690;2023-04-01T04:33:30;11.10;99.90
12504;DHT22;6316;48.118;-1.690;2023-04-01T04:35:57;11.10;99.90
12504;DHT22;6316;48.118;-1.690;2023-04-01T04:38:23;11.10;99.90
12504;DHT22;6316;48.118;-1.690;2023-04-01T04:40:49;11.10;99.90
12504;DHT22;6316;48.118;-1.690;2023-04-01T04:43:17;11.10;99.90
12504;DHT22;6316;48.118;-1.690;2023-04-01T04:45:43;11.00;99.90
12504;DHT22;6316;48.118;-1.690;2023-04-01T04:48:10;11.00;99.90
12504;DHT22;6316;48.118;-1.690;2023-04-01T04:50:40;10.90;99.90
12504;DHT22;6316;48.118;-1.690;2023-04-01T04:53:06;10.90;99.90
12504;DHT22;6316;48.118;-1.690;2023-04-01T04:55:31;10.90;99.90
12504;DHT22;6316;48.118;-1.690;2023-04-01T04:57:57;10.90;99.90
12504;DHT22;6316;48.118;-1.690;2023-04-01T05:00:22;10.90;99.90
12504;DHT22;6316;48.118;-1.690;2023-04-01T05:02:48;10.90;99.90
12504;DHT22;6316;48.118;-1.690;2023-04-01T05:05:14;10.80;99.90
12504;DHT22;6316;48.118;-1.690;2023-04-01T05:07:40;10.80;99.90
12504;DHT22;6316;48.118;-1.690;2023-04-01T05:10:06;10.70;99.90
12504;DHT22;6316;48.118;-1.690;2023-04-01T05:12:31;10.70;99.90
12504;DHT22;6316;48.118;-1.690;2023-04-01T05:15:04;10.60;99.90
12504;DHT22;6316;48.118;-1.690;2023-04-01T05:17:29;10.60;99.90
12504;DHT22;6316;48.118;-1.690;2023-04-01T05:19:55;10.60;99.90
12504;DHT22;6316;48.118;-1.690;2023-04-01T05:22:21;10.50;99.90
12504;DHT22;6316;48.118;-1.690;2023-04-01T05:24:46;10.50;99.90
12504;DHT22;6316;48.118;-1.690;2023-04-01T05:27:12;10.50;99.90
12504;DHT22;6316;48.118;-1.690;2023-04-01T05:29:38;10.40;99.90
12504;DHT22;6316;48.118;-1.690;2023-04-01T05:32:04;10.40;99.90
12504;DHT22;6316;48.118;-1.690;2023-04-01T05:34:29;10.40;99.90
12504;DHT22;6316;48.118;-1.690;2023-04-01T05:36:55;10.40;99.90
12504;DHT22;6316;48.118;-1.690;2023-04-01T05:39:21;10.30;99.90
12504;DHT22;6316;48.118;-1.690;2023-04-01T05:41:46;10.30;99.90
12504;DHT22;6316;48.118;-1.690;2023-04-01T05:44:12;10.30;99.90
12504;DHT22;6316;48.118;-1.690;2023-04-01T05:46:38;10.20;99.90
12504;DHT22;6316;48.118;-1.690;2023-04-01T05:49:03;10.20;99.90
12504;DHT22;6316;48.118;-1.690;2023-04-01T05:51:29;10.20;99.90
12504;DHT22;6316;48.118;-1.690;2023-04-01T05:53:55;10.10;99.90
12504;DHT22;6316;48.118;-1.690;2023-04-01T05:56:20;10.10;99.90
12504;DHT22;6316;48.118;-1.690;2023-04-01T05:58:51;10.10;99.90
12504;DHT22;6316;48.118;-1.690;2023-04-01T06:01:17;10.10;99.90
12504;DHT22;6316;48.118;-1.690;2023-04-01T06:03:44;10.10;99.90
12504;DHT22;6316;48.118;-1.690;2023-04-01T06:06:15;10.10;99.90
12504;DHT22;6316;48.118;-1.690;2023-04-01T06:08:41;10.10;99.90
12504;DHT22;6316;48.118;-1.690;2023-04-01T06:11:23;10.10;99.90
12504;DHT22;6316;48.118;-1.690;2023-04-01T06:14:16;10.20;99.90
12504;DHT22;6316;48.118;-1.690;2023-04-01T06:20:12;10.30;99.90
12504;DHT22;6316;48.118;-1.690;2023-04-01T06:31:38;10.40;99.90
12504;DHT22;6316;48.118;-1.690;2023-04-01T06:45:32;10.60;99.90
12504;DHT22;6316;48.118;-1.690;2023-04-01T06:48:27;10.70;99.90
12504;DHT22;6316;48.118;-1.690;2023-04-01T06:51:24;10.80;99.90
12504;DHT22;6316;48.118;-1.690;2023-04-01T06:54:12;10.80;99.90
12504;DHT22;6316;48.118;-1.690;2023-04-01T06:56:42;10.90;99.90
12504;DHT22;6316;48.118;-1.690;2023-04-01T06:59:20;11.20;99.90
12504;DHT22;6316;48.118;-1.690;2023-04-01T07:04:23;13.10;99.90
12504;DHT22;6316;48.118;-1.690;2023-04-01T07:06:57;14.50;99.90
12504;DHT22;6316;48.118;-1.690;2023-04-01T07:09:37;15.80;99.90
12504;DHT22;6316;48.118;-1.690;2023-04-01T07:12:21;17.20;99.90
12504;DHT22;6316;48.118;-1.690;2023-04-01T07:14:53;18.30;99.90
12504;DHT22;6316;48.118;-1.690;2023-04-01T07:17:23;19.20;99.90
12504;DHT22;6316;48.118;-1.690;2023-04-01T07:24:52;21.00;99.90
12504;DHT22;6316;48.118;-1.690;2023-04-01T07:27:18;21.50;99.90
12504;DHT22;6316;48.118;-1.690;2023-04-01T07:29:43;22.00;99.90
12504;DHT22;6316;48.118;-1.690;2023-04-01T07:32:30;22.50;99.90
12504;DHT22;6316;48.118;-1.690;2023-04-01T07:35:23;22.90;99.90
12504;DHT22;6316;48.118;-1.690;2023-04-01T07:41:03;23.50;99.90
12504;DHT22;6316;48.118;-1.690;2023-04-01T07:52:29;19.10;99.90
12504;DHT22;6316;48.118;-1.690;2023-04-01T08:00:51;19.20;99.90
12504;DHT22;6316;48.118;-1.690;2023-04-01T08:05:54;20.50;99.90
12504;DHT22;6316;48.118;-1.690;2023-04-01T08:08:41;20.40;99.90
12504;DHT22;6316;48.118;-1.690;2023-04-01T08:22:02;17.60;99.90
12504;DHT22;6316;48.118;-1.690;2023-04-01T08:24:42;17.40;99.90
12504;DHT22;6316;48.118;-1.690;2023-04-01T08:27:24;17.30;99.90
12504;DHT22;6316;48.118;-1.690;2023-04-01T08:30:24;17.00;99.90
12504;DHT22;6316;48.118;-1.690;2023-04-01T08:32:58;16.70;99.90
12504;DHT22;6316;48.118;-1.690;2023-04-01T08:38:15;16.30;99.90
12504;DHT22;6316;48.118;-1.690;2023-04-01T08:40:58;16.10;99.90
12504;DHT22;6316;48.118;-1.690;2023-04-01T08:49:31;15.80;99.90
12504;DHT22;6316;48.118;-1.690;2023-04-01T08:57:38;15.60;99.90
12504;DHT22;6316;48.118;-1.690;2023-04-01T09:13:44;15.70;99.90
12504;DHT22;6316;48.118;-1.690;2023-04-01T09:22:33;15.70;99.90
12504;DHT22;6316;48.118;-1.690;2023-04-01T09:27:57;15.40;99.90
12504;DHT22;6316;48.118;-1.690;2023-04-01T09:38:30;15.20;99.90
12504;DHT22;6316;48.118;-1.690;2023-04-01T09:46:36;15.30;99.90
12504;DHT22;6316;48.118;-1.690;2023-04-01T09:52:01;15.00;99.90
12504;DHT22;6316;48.118;-1.690;2023-04-01T09:54:35;14.90;99.90
12504;DHT22;6316;48.118;-1.690;2023-04-01T10:10:46;14.80;99.90
12504;DHT22;6316;48.118;-1.690;2023-04-01T10:16:16;14.80;99.90
12504;DHT22;6316;48.118;-1.690;2023-04-01T10:19:10;14.90;99.90
12504;DHT22;6316;48.118;-1.690;2023-04-01T11:04:51;15.70;99.90
12504;DHT22;6316;48.118;-1.690;2023-04-01T11:29:54;15.80;99.90
12504;DHT22;6316;48.118;-1.690;2023-04-01T11:40:37;15.00;99.90
12504;DHT22;6316;48.118;-1.690;2023-04-01T11:57:46;14.50;99.90
12504;DHT22;6316;48.118;-1.690;2023-04-01T12:16:59;15.00;99.90
12504;DHT22;6316;48.118;-1.690;2023-04-01T12:25:14;15.40;99.90
12504;DHT22;6316;48.118;-1.690;2023-04-01T12:27:57;15.50;99.90
12504;DHT22;6316;48.118;-1.690;2023-04-01T12:30:32;15.60;99.90
12504;DHT22;6316;48.118;-1.690;2023-04-01T12:43:29;16.10;99.90
12504;DHT22;6316;48.118;-1.690;2023-04-01T12:57:03;15.70;99.90
12504;DHT22;6316;48.118;-1.690;2023-04-01T13:13:15;15.30;99.90
12504;DHT22;6316;48.118;-1.690;2023-04-01T13:27:18;15.20;99.90
12504;DHT22;6316;48.118;-1.690;2023-04-01T13:33:01;15.10;99.90
12504;DHT22;6316;48.118;-1.690;2023-04-01T13:35:52;15.10;99.90
12504;DHT22;6316;48.118;-1.690;2023-04-01T13:41:10;14.90;99.90
12504;DHT22;6316;48.118;-1.690;2023-04-01T13:43:59;14.80;99.90
12504;DHT22;6316;48.118;-1.690;2023-04-01T14:03:21;15.20;99.90
12504;DHT22;6316;48.118;-1.690;2023-04-01T14:11:52;15.40;99.90
12504;DHT22;6316;48.118;-1.690;2023-04-01T14:24:52;15.50;99.90
12504;DHT22;6316;48.118;-1.690;2023-04-01T14:27:56;15.40;99.90
12504;DHT22;6316;48.118;-1.690;2023-04-01T14:35:49;14.90;99.90
12504;DHT22;6316;48.118;-1.690;2023-04-01T14:49:41;15.00;99.90
12504;DHT22;6316;48.118;-1.690;2023-04-01T14:54:44;15.20;99.90
12504;DHT22;6316;48.118;-1.690;2023-04-01T14:57:15;15.20;99.90
12504;DHT22;6316;48.118;-1.690;2023-04-01T15:16:19;15.20;99.90
12504;DHT22;6316;48.118;-1.690;2023-04-01T15:24:51;15.40;99.90
12504;DHT22;6316;48.118;-1.690;2023-04-01T15:33:22;15.50;99.90
12504;DHT22;6316;48.118;-1.690;2023-04-01T15:41:27;15.50;99.90
12504;DHT22;6316;48.118;-1.690;2023-04-01T15:43:55;15.50;99.90
12504;DHT22;6316;48.118;-1.690;2023-04-01T15:49:08;15.60;99.90
12504;DHT22;6316;48.118;-1.690;2023-04-01T15:57:28;15.80;99.90
12504;DHT22;6316;48.118;-1.690;2023-04-01T16:05:59;15.90;99.90
12504;DHT22;6316;48.118;-1.690;2023-04-01T16:19:59;15.70;99.90
12504;DHT22;6316;48.118;-1.690;2023-04-01T16:22:34;15.60;99.90
12504;DHT22;6316;48.118;-1.690;2023-04-01T16:31:09;15.70;99.90
12504;DHT22;6316;48.118;-1.690;2023-04-01T16:33:58;15.70;99.90
12504;DHT22;6316;48.118;-1.690;2023-04-01T16:41:53;15.50;99.90
12504;DHT22;6316;48.118;-1.690;2023-04-01T16:44:25;15.40;99.90
12504;DHT22;6316;48.118;-1.690;2023-04-01T16:46:56;15.30;99.90
12504;DHT22;6316;48.118;-1.690;2023-04-01T16:52:15;15.30;99.90
12504;DHT22;6316;48.118;-1.690;2023-04-01T16:57:31;15.20;99.90
12504;DHT22;6316;48.118;-1.690;2023-04-01T17:03:03;15.10;99.90
12504;DHT22;6316;48.118;-1.690;2023-04-01T17:08:32;15.10;99.90
12504;DHT22;6316;48.118;-1.690;2023-04-01T17:16:44;14.90;99.90
12504;DHT22;6316;48.118;-1.690;2023-04-01T17:25:25;14.70;99.90
12504;DHT22;6316;48.118;-1.690;2023-04-01T17:30:52;14.50;99.90
12504;DHT22;6316;48.118;-1.690;2023-04-01T17:52:02;14.00;99.90
12504;DHT22;6316;48.118;-1.690;2023-04-01T17:54:46;14.00;99.90
12504;DHT22;6316;48.118;-1.690;2023-04-01T18:03:46;13.90;99.90
12504;DHT22;6316;48.118;-1.690;2023-04-01T18:11:12;13.70;99.90
12504;DHT22;6316;48.118;-1.690;2023-04-01T18:19:20;13.60;99.90
12504;DHT22;6316;48.118;-1.690;2023-04-01T18:24:35;13.50;99.90
12504;DHT22;6316;48.118;-1.690;2023-04-01T18:27:23;13.50;99.90
12504;DHT22;6316;48.118;-1.690;2023-04-01T18:29:53;13.50;99.90
12504;DHT22;6316;48.118;-1.690;2023-04-01T18:35:17;13.50;99.90
12504;DHT22;6316;48.118;-1.690;2023-04-01T18:45:32;13.40;99.90
12504;DHT22;6316;48.118;-1.690;2023-04-01T18:51:48;13.40;99.90
12504;DHT22;6316;48.118;-1.690;2023-04-01T18:54:00;13.30;99.90
12504;DHT22;6316;48.118;-1.690;2023-04-01T18:56:34;13.20;99.90
12504;DHT22;6316;48.118;-1.690;2023-04-01T19:02:14;13.10;99.90
12504;DHT22;6316;48.118;-1.690;2023-04-01T19:05:31;13.00;99.90
12504;DHT22;6316;48.118;-1.690;2023-04-01T19:07:42;13.00;99.90
12504;DHT22;6316;48.118;-1.690;2023-04-01T19:25:55;12.90;99.90
12504;DHT22;6316;48.118;-1.690;2023-04-01T19:30:55;12.90;99.90
12504;DHT22;6316;48.118;-1.690;2023-04-01T19:36:24;12.90;99.90
12504;DHT22;6316;48.118;-1.690;2023-04-01T19:39:16;12.90;99.90
12504;DHT22;6316;48.118;-1.690;2023-04-01T19:42:00;12.90;99.90
12504;DHT22;6316;48.118;-1.690;2023-04-01T19:45:07;12.90;99.90
12504;DHT22;6316;48.118;-1.690;2023-04-01T19:50:29;12.90;99.90
12504;DHT22;6316;48.118;-1.690;2023-04-01T19:53:14;12.90;99.90
12504;DHT22;6316;48.118;-1.690;2023-04-01T19:55:57;12.80;99.90
12504;DHT22;6316;48.118;-1.690;2023-04-01T20:01:11;12.80;99.90
12504;DHT22;6316;48.118;-1.690;2023-04-01T20:03:50;12.70;99.90
12504;DHT22;6316;48.118;-1.690;2023-04-01T20:12:24;12.70;99.90
12504;DHT22;6316;48.118;-1.690;2023-04-01T20:14:58;12.70;99.90
12504;DHT22;6316;48.118;-1.690;2023-04-01T20:17:44;12.70;99.90
12504;DHT22;6316;48.118;-1.690;2023-04-01T20:27:45;12.60;99.90
12504;DHT22;6316;48.118;-1.690;2023-04-01T20:40:58;12.70;99.90
12504;DHT22;6316;48.118;-1.690;2023-04-01T20:43:35;12.60;99.90
12504;DHT22;6316;48.118;-1.690;2023-04-01T20:46:22;12.70;99.90
12504;DHT22;6316;48.118;-1.690;2023-04-01T20:48:59;12.60;99.90
12504;DHT22;6316;48.118;-1.690;2023-04-01T20:51:31;12.70;99.90
12504;DHT22;6316;48.118;-1.690;2023-04-01T21:05:27;12.60;99.90
12504;DHT22;6316;48.118;-1.690;2023-04-01T21:11:11;12.50;99.90
12504;DHT22;6316;48.118;-1.690;2023-04-01T21:22:14;12.40;99.90
12504;DHT22;6316;48.118;-1.690;2023-04-01T21:25:02;12.40;99.90
12504;DHT22;6316;48.118;-1.690;2023-04-01T21:27:41;12.40;99.90
12504;DHT22;6316;48.118;-1.690;2023-04-01T21:43:34;12.40;99.90
12504;DHT22;6316;48.118;-1.690;2023-04-01T21:52:22;12.30;99.90
12504;DHT22;6316;48.118;-1.690;2023-04-01T22:00:41;12.20;99.90
12504;DHT22;6316;48.118;-1.690;2023-04-01T22:11:19;12.20;99.90
12504;DHT22;6316;48.118;-1.690;2023-04-01T22:13:54;12.10;99.90
12504;DHT22;6316;48.118;-1.690;2023-04-01T22:16:54;12.10;99.90
12504;DHT22;6316;48.118;-1.690;2023-04-01T22:25:16;12.10;99.90
12504;DHT22;6316;48.118;-1.690;2023-04-01T22:27:54;12.10;99.90
12504;DHT22;6316;48.118;-1.690;2023-04-01T22:35:28;12.10;99.90
12504;DHT22;6316;48.118;-1.690;2023-04-01T22:43:37;11.90;99.90
12504;DHT22;6316;48.118;-1.690;2023-04-01T22:49:11;11.90;99.90
12504;DHT22;6316;48.118;-1.690;2023-04-01T22:54:22;11.80;99.90
12504;DHT22;6316;48.118;-1.690;2023-04-01T22:59:44;11.70;99.90
12504;DHT22;6316;48.118;-1.690;2023-04-01T23:02:33;11.70;99.90
12504;DHT22;6316;48.118;-1.690;2023-04-01T23:05:03;11.60;99.90
12504;DHT22;6316;48.118;-1.690;2023-04-01T23:10:28;11.50;99.90
12504;DHT22;6316;48.118;-1.690;2023-04-01T23:13:01;11.50;99.90
12504;DHT22;6316;48.118;-1.690;2023-04-01T23:15:28;11.40;99.90
12504;DHT22;6316;48.118;-1.690;2023-04-01T23:18:05;11.40;99.90
12504;DHT22;6316;48.118;-1.690;2023-04-01T23:26:13;11.30;99.90
12504;DHT22;6316;48.118;-1.690;2023-04-01T23:28:52;11.30;99.90
12504;DHT22;6316;48.118;-1.690;2023-04-01T23:31:38;11.30;99.90
12504;DHT22;6316;48.118;-1.690;2023-04-01T23:34:20;11.30;99.90
12504;DHT22;6316;48.118;-1.690;2023-04-01T23:36:48;11.20;99.90
12504;DHT22;6316;48.118;-1.690;2023-04-01T23:39:34;11.20;99.90
12504;DHT22;6316;48.118;-1.690;2023-04-01T23:42:06;11.20;99.90
12504;DHT22;6316;48.118;-1.690;2023-04-01T23:44:33;11.20;99.90
12504;DHT22;6316;48.118;-1.690;2023-04-01T23:47:01;11.30;99.90
12504;DHT22;6316;48.118;-1.690;2023-04-01T23:49:36;11.30;99.90
12504;DHT22;6316;48.118;-1.690;2023-04-01T23:52:26;11.30;99.90
12504;DHT22;6316;48.118;-1.690;2023-04-01T23:57:29;11.40;99.90
